.
WxDataArchive / Data Records for 2013-03-15
2013-03-14 March 2013 2013-03-16

Data Records for Friday, 15 March 2013

Time	Temp	Chill	HIndex	Humid	Dewpt	 Wind 	HiWind	WindDir	Rain 	Barom 
-----	----	-----	------	-----	-----	------	------	-------	-----	----- 
00:00	32.9	32.9	32.9	62	21.3	0	1	248	0.00	30.142 
00:05	32.9	32.9	32.9	62	21.3	0	1	248	0.00	30.142 
00:10	33.1	33.1	33.1	62	21.5	0	2	248	0.00	30.142 
00:15	33.2	33.2	33.2	62	21.6	0	2	248	0.00	30.131 
00:20	33.4	33.4	33.4	62	21.8	0	3	248	0.00	30.131 
00:25	33.5	33.5	33.5	62	21.9	0	2	248	0.00	30.131 
00:30	33.8	33.8	33.8	62	22.2	0	2	248	0.00	30.129 
00:35	34.0	34.0	34.0	63	22.7	1	4	248	0.00	30.129 
00:40	34.1	34.1	34.1	65	23.6	0	4	248	0.00	30.129 
00:45	34.1	34.1	34.1	66	23.9	0	4	248	0.00	30.120 
00:50	34.1	34.1	34.1	67	24.3	1	3	248	0.00	30.120 
00:55	34.1	34.1	34.1	68	24.7	0	2	248	0.00	30.120 
01:00	34.0	34.0	34.0	69	24.9	0	2	248	0.00	30.124 
01:05	33.8	33.8	33.8	70	25.1	0	1	248	0.00	30.124 
01:10	33.7	33.7	33.7	71	25.3	0	2	248	0.00	30.124 
01:15	33.4	33.4	33.4	72	25.4	0	1	248	0.00	30.116 
01:20	33.2	33.2	33.2	73	25.5	0	2	248	0.00	30.116 
01:25	33.1	33.1	33.1	74	25.7	0	4	248	0.00	30.116 
01:30	33.1	33.1	33.1	75	26.1	0	3	248	0.00	30.113 
01:35	33.1	33.1	33.1	76	26.4	0	4	248	0.00	30.113 
01:40	33.1	33.1	33.1	77	26.7	1	4	248	0.00	30.113 
01:45	32.9	32.9	32.9	78	26.8	0	1	248	0.00	30.112 
01:50	32.8	32.8	32.8	78	26.7	0	3	248	0.00	30.112 
01:55	32.8	32.8	32.8	79	27.0	0	3	248	0.00	30.112 
02:00	32.7	32.7	32.7	80	27.2	0	2	248	0.00	30.108 
02:05	32.5	32.5	32.5	80	27.0	0	3	248	0.00	30.108 
02:10	32.4	32.4	32.4	81	27.2	0	1	248	0.00	30.108 
02:15	32.2	32.2	32.2	81	27.0	0	1	248	0.00	30.102 
02:20	32.1	32.1	32.1	82	27.2	0	2	248	0.00	30.102 
02:25	32.1	32.1	32.1	82	27.2	0	1	248	0.00	30.102 
02:30	31.9	31.9	31.9	82	27.0	0	2	248	0.00	30.095 
02:35	31.9	31.9	31.9	83	27.3	0	2	248	0.00	30.095 
02:40	31.9	31.9	31.9	83	27.3	1	3	248	0.00	30.095 
02:45	32.1	32.1	32.1	84	27.8	1	6	248	0.00	30.089 
02:50	32.2	32.2	32.2	84	27.9	2	4	248	0.00	30.089 
02:55	32.4	32.4	32.4	85	28.4	2	6	225	0.00	30.089 
03:00	32.5	32.5	32.5	85	28.5	1	4	248	0.00	30.082 
03:05	32.5	32.5	32.5	85	28.5	1	3	248	0.00	30.082 
03:10	32.5	32.5	32.5	85	28.5	1	5	248	0.00	30.082 
03:15	32.5	32.5	32.5	86	28.8	1	4	248	0.00	30.079 
03:20	32.5	32.5	32.5	86	28.8	0	2	248	0.00	30.079 
03:25	32.5	32.5	32.5	86	28.8	1	4	248	0.00	30.079 
03:30	32.7	32.7	32.7	86	29.0	1	4	248	0.00	30.070 
03:35	32.7	32.7	32.7	87	29.3	1	4	248	0.00	30.070 
03:40	32.7	32.7	32.7	87	29.3	1	4	248	0.00	30.070 
03:45	32.7	32.7	32.7	87	29.3	1	5	248	0.00	30.072 
03:50	32.8	32.8	32.8	87	29.4	1	4	248	0.00	30.072 
03:55	32.8	32.8	32.8	87	29.4	1	2	270	0.00	30.072 
04:00	32.7	32.7	32.7	87	29.3	2	5	248	0.00	30.064 
04:05	32.7	32.7	32.7	87	29.3	1	4	248	0.00	30.064 
04:10	32.7	32.7	32.7	87	29.3	1	4	248	0.00	30.064 
04:15	32.5	32.5	32.5	87	29.1	1	4	248	0.00	30.046 
04:20	32.4	32.4	32.4	87	29.0	0	2	248	0.00	30.046 
04:25	32.2	32.2	32.2	87	28.8	0	2	248	0.00	30.046 
04:30	32.1	32.1	32.1	87	28.7	0	2	248	0.00	30.046 
04:35	31.9	31.9	31.9	87	28.5	0	4	248	0.00	30.046 
04:40	31.9	31.9	31.9	88	28.8	0	1	248	0.00	30.046 
04:45	31.8	31.8	31.8	88	28.7	0	2	248	0.00	30.043 
04:50	31.8	31.8	31.8	88	28.7	0	2	248	0.00	30.043 
04:55	31.8	31.8	31.8	88	28.7	1	3	270	0.00	30.043 
05:00	31.8	31.8	31.8	88	28.7	1	4	270	0.00	30.035 
05:05	31.8	31.8	31.8	88	28.7	0	2	248	0.00	30.035 
05:10	31.8	31.8	31.8	88	28.7	0	2	248	0.00	30.035 
05:15	31.8	31.8	31.8	88	28.7	0	2	248	0.00	30.032 
05:20	31.6	31.6	31.6	88	28.5	0	1	248	0.00	30.032 
05:25	31.6	31.6	31.6	88	28.5	0	2	248	0.00	30.032 
05:30	31.5	31.5	31.5	89	28.6	0	1	248	0.00	30.030 
05:35	31.5	31.5	31.5	89	28.6	0	2	248	0.00	30.030 
05:40	31.5	31.5	31.5	89	28.6	0	1	248	0.00	30.030 
05:45	31.5	31.5	31.5	89	28.6	0	2	248	0.00	30.025 
05:50	31.3	31.3	31.3	89	28.4	0	1	248	0.00	30.025 
05:55	31.3	31.3	31.3	89	28.4	0	2	248	0.00	30.025 
06:00	31.3	31.3	31.3	89	28.4	0	3	248	0.00	30.017 
06:05	31.3	31.3	31.3	89	28.4	0	1	248	0.00	30.017 
06:10	31.3	31.3	31.3	89	28.4	0	2	248	0.00	30.017 
06:15	31.3	31.3	31.3	89	28.4	0	2	248	0.00	30.016 
06:20	31.3	31.3	31.3	89	28.4	0	3	248	0.00	30.016 
06:25	31.2	31.2	31.2	89	28.3	0	3	248	0.00	30.016 
06:30	31.2	31.2	31.2	89	28.3	0	2	248	0.00	30.008 
06:35	31.2	31.2	31.2	89	28.3	0	3	248	0.00	30.008 
06:40	31.0	31.0	31.0	89	28.1	0	2	248	0.00	30.008 
06:45	31.0	31.0	31.0	89	28.1	0	2	248	0.00	30.003 
06:50	31.0	31.0	31.0	89	28.1	0	1	248	0.00	30.003 
06:55	30.9	30.9	30.9	89	28.0	0	1	248	0.00	30.003 
07:00	30.7	30.7	30.7	89	27.8	0	1	248	0.00	29.990 
07:05	30.6	30.6	30.6	89	27.8	0	1	248	0.00	29.990 
07:10	30.6	30.6	30.6	89	27.8	0	1	248	0.00	29.990 
07:15	30.4	30.4	30.4	89	27.6	0	1	248	0.00	29.991 
07:20	30.4	30.4	30.4	89	27.6	0	1	248	0.00	29.991 
07:25	30.4	30.4	30.4	89	27.6	0	1	248	0.00	29.991 
07:30	30.6	30.6	30.6	89	27.8	0	2	248	0.00	29.988 
07:35	30.6	30.6	30.6	89	27.8	0	2	248	0.00	29.988 
07:40	30.6	30.6	30.6	89	27.8	0	2	248	0.00	29.988 
07:45	30.6	30.6	30.6	89	27.8	0	2	248	0.00	29.981 
07:50	30.6	30.6	30.6	89	27.8	0	2	248	0.00	29.981 
07:55	30.6	30.6	30.6	90	28.0	0	3	248	0.00	29.981 
08:00	30.7	30.7	30.7	90	28.1	0	3	248	0.00	29.986 
08:05	30.7	30.7	30.7	90	28.1	0	2	248	0.00	29.986 
08:10	30.7	30.7	30.7	90	28.1	0	2	248	0.00	29.986 
08:15	30.7	30.7	30.7	90	28.1	1	3	248	0.00	29.990 
08:20	30.9	30.9	30.9	90	28.3	0	2	248	0.00	29.990 
08:25	30.9	30.9	30.9	90	28.3	0	3	248	0.00	29.990 
08:30	31.0	31.0	31.0	90	28.4	0	3	248	0.00	29.991 
08:35	31.2	31.2	31.2	89	28.3	1	3	248	0.00	29.991 
08:40	31.3	31.3	31.3	89	28.4	1	3	248	0.00	29.991 
08:45	31.5	31.5	31.5	89	28.6	1	3	248	0.00	29.998 
08:50	31.5	31.5	31.5	89	28.6	1	4	248	0.00	29.998 
08:55	31.6	31.6	31.6	89	28.7	0	2	248	0.00	29.998 
09:00	31.8	31.8	31.8	89	28.9	0	1	248	0.00	29.993 
09:05	31.8	31.8	31.8	89	28.9	0	2	248	0.00	29.993 
09:10	31.9	31.9	31.9	88	28.8	0	3	248	0.00	29.993 
09:15	32.1	32.1	32.1	88	29.0	0	4	248	0.00	29.988 
09:20	32.2	32.2	32.2	88	29.1	1	3	248	0.00	29.988 
09:25	32.4	32.4	32.4	88	29.3	1	5	248	0.00	29.988 
09:30	32.5	32.5	32.5	88	29.3	0	3	248	0.00	29.983 
09:35	32.7	32.7	32.7	87	29.3	1	6	248	0.00	29.983 
09:40	32.8	32.8	32.8	87	29.4	1	4	248	0.00	29.983 
09:45	32.9	32.9	32.9	87	29.5	1	3	248	0.00	29.976 
09:50	33.1	33.1	33.1	86	29.4	1	4	248	0.00	29.976 
09:55	33.2	33.2	33.2	86	29.5	1	4	248	0.00	29.976 
10:00	33.5	33.5	33.5	85	29.5	0	2	248	0.00	29.973 
10:05	33.8	33.8	33.8	85	29.8	1	3	248	0.00	29.973 
10:10	34.1	34.1	34.1	85	30.1	1	4	248	0.00	29.973 
10:15	34.4	34.4	34.4	83	29.8	2	5	248	0.00	29.971 
10:20	34.6	34.6	34.6	83	30.0	1	4	225	0.00	29.971 
10:25	34.9	34.9	34.9	82	30.0	1	4	248	0.00	29.971 
10:30	35.3	35.3	35.3	82	30.4	1	3	248	0.00	29.956 
10:35	35.6	35.6	35.6	81	30.4	1	5	248	0.00	29.956 
10:40	35.9	35.9	35.9	80	30.3	2	5	248	0.00	29.956 
10:45	36.2	36.2	36.2	79	30.3	1	3	248	0.00	29.956 
10:50	36.5	36.5	36.5	78	30.3	1	4	248	0.00	29.956 
10:55	36.8	36.8	36.8	78	30.6	1	3	248	0.00	29.956 
11:00	37.0	37.0	37.0	77	30.5	1	3	248	0.00	29.957 
11:05	37.3	37.3	37.3	77	30.8	1	5	248	0.00	29.957 
11:10	37.6	37.6	37.6	76	30.7	1	4	248	0.00	29.957 
11:15	37.9	37.9	37.9	76	31.0	1	4	248	0.00	29.952 
11:20	38.0	38.0	38.0	75	30.8	1	4	248	0.00	29.952 
11:25	38.3	38.3	38.3	75	31.1	1	5	248	0.00	29.952 
11:30	38.8	38.8	38.8	74	31.2	1	5	248	0.00	29.951 
11:35	39.5	39.5	39.5	74	31.9	0	4	270	0.00	29.951 
11:40	39.8	39.8	39.8	72	31.5	2	3	270	0.00	29.951 
11:45	39.6	39.6	39.6	71	31.0	1	3	248	0.00	29.949 
11:50	39.6	39.6	39.6	71	31.0	2	4	248	0.00	29.949 
11:55	39.8	39.8	39.8	72	31.5	1	4	248	0.00	29.949 
12:00	39.8	39.8	39.8	71	31.2	1	4	248	0.00	29.948 
12:05	39.9	39.9	39.9	72	31.6	1	3	248	0.00	29.948 
12:10	40.1	40.1	40.1	72	31.8	1	2	248	0.00	29.948 
12:15	40.1	40.1	40.1	71	31.5	1	4	315	0.00	29.943 
12:20	39.9	39.9	39.9	72	31.6	1	4	270	0.00	29.943 
12:25	39.9	39.9	39.9	72	31.6	1	3	270	0.00	29.943 
12:30	40.1	40.1	40.1	72	31.8	1	3	270	0.00	29.939 
12:35	40.1	40.1	40.1	73	32.2	0	2	270	0.00	29.939 
12:40	40.3	40.3	40.3	72	32.0	1	3	270	0.00	29.939 
12:45	40.5	40.5	40.5	72	32.2	1	2	270	0.00	29.937 
12:50	40.5	40.5	40.5	72	32.2	1	3	270	0.00	29.937 
12:55	40.8	40.8	40.8	72	32.5	1	3	270	0.00	29.937 
13:00	40.9	40.9	40.9	71	32.2	1	3	270	0.00	29.935 
13:05	41.2	41.2	41.2	72	32.9	0	3	270	0.00	29.935 
13:10	41.6	41.6	41.6	71	32.9	0	4	270	0.00	29.935 
13:15	41.6	41.6	41.6	70	32.6	1	3	248	0.00	29.925 
13:20	41.8	41.8	41.8	70	32.7	1	3	248	0.00	29.925 
13:25	42.1	42.1	42.1	70	33.0	0	1	248	0.00	29.925 
13:30	42.3	42.3	42.3	69	32.9	1	3	248	0.00	29.921 
13:35	42.6	42.6	42.6	69	33.2	1	3	248	0.00	29.921 
13:40	42.9	42.9	42.9	69	33.4	0	2	248	0.00	29.921 
13:45	43.2	43.2	43.2	69	33.7	1	2	270	0.00	29.916 
13:50	43.6	43.6	43.6	68	33.7	1	3	270	0.00	29.916 
13:55	43.9	43.9	43.9	67	33.7	1	3	248	0.00	29.916 
14:00	43.9	43.9	43.9	66	33.3	1	3	248	0.00	29.913 
14:05	44.2	44.2	44.2	67	33.9	0	2	248	0.00	29.913 
14:10	44.8	44.8	44.8	65	33.8	1	2	248	0.00	29.913 
14:15	45.2	45.2	45.2	65	34.1	1	4	248	0.00	29.900 
14:20	45.5	45.5	45.5	65	34.4	1	3	248	0.00	29.900 
14:25	45.8	45.8	45.8	65	34.7	1	3	248	0.00	29.900 
14:30	46.7	46.7	46.7	64	35.2	1	3	248	0.00	29.892 
14:35	47.0	47.0	47.0	63	35.1	1	3	270	0.00	29.892 
14:40	47.4	47.4	47.4	62	35.0	1	3	248	0.00	29.892 
14:45	47.7	47.7	47.7	61	34.9	1	3	292	0.00	29.886 
14:50	47.6	47.6	47.6	61	34.8	1	4	270	0.00	29.886 
14:55	47.6	47.6	47.6	60	34.4	1	4	248	0.00	29.886 
15:00	47.9	47.9	47.9	59	34.3	1	5	248	0.00	29.882 
15:05	48.0	48.0	48.0	59	34.4	2	5	248	0.00	29.882 
15:10	47.9	47.9	47.9	59	34.3	2	6	248	0.00	29.882 
15:15	47.7	47.7	47.7	59	34.1	1	5	248	0.00	29.881 
15:20	47.6	47.6	47.6	59	34.0	1	4	270	0.00	29.881 
15:25	47.3	47.3	47.3	60	34.1	2	3	248	0.00	29.881 
15:30	47.1	47.1	47.1	60	33.9	1	3	225	0.00	29.881 
15:35	47.0	47.0	47.0	61	34.3	1	4	248	0.00	29.881 
15:40	46.5	46.5	46.5	61	33.8	1	4	270	0.00	29.881 
15:45	46.4	46.4	46.4	62	34.1	1	3	270	0.00	29.874 
15:50	46.4	46.4	46.4	62	34.1	2	6	248	0.00	29.874 
15:55	46.4	46.4	46.4	63	34.5	1	3	248	0.00	29.874 
16:00	46.4	46.4	46.4	64	34.9	1	3	248	0.00	29.874 
16:05	46.2	46.2	46.2	63	34.3	2	6	248	0.00	29.874 
16:10	46.1	46.1	46.1	64	34.6	1	3	248	0.00	29.874 
16:15	46.0	46.0	46.0	63	34.1	1	5	248	0.00	29.871 
16:20	46.0	46.0	46.0	64	34.5	1	3	248	0.00	29.871 
16:25	46.1	46.1	46.1	64	34.6	1	4	248	0.00	29.871 
16:30	46.1	46.1	46.1	64	34.6	2	5	248	0.00	29.872 
16:35	46.0	46.0	46.0	64	34.5	1	3	248	0.00	29.872 
16:40	46.0	46.0	46.0	64	34.5	1	3	248	0.00	29.872 
16:45	45.8	45.8	45.8	64	34.3	1	4	248	0.00	29.875 
16:50	45.8	45.8	45.8	64	34.3	1	4	248	0.00	29.875 
16:55	45.8	45.8	45.8	65	34.7	1	4	248	0.00	29.875 
17:00	46.0	46.0	46.0	65	34.9	1	3	248	0.00	29.873 
17:05	46.0	46.0	46.0	65	34.9	0	3	248	0.00	29.873 
17:10	46.0	46.0	46.0	65	34.9	0	2	248	0.00	29.873 
17:15	46.0	46.0	46.0	65	34.9	1	4	248	0.00	29.870 
17:20	46.0	46.0	46.0	65	34.9	0	2	248	0.00	29.870 
17:25	46.1	46.1	46.1	66	35.4	0	2	248	0.00	29.870 
17:30	46.1	46.1	46.1	66	35.4	0	3	248	0.00	29.869 
17:35	46.0	46.0	46.0	67	35.7	0	2	248	0.00	29.869 
17:40	46.0	46.0	46.0	68	36.0	0	3	248	0.00	29.869 
17:45	45.8	45.8	45.8	68	35.8	1	3	248	0.00	29.867 
17:50	45.7	45.7	45.7	69	36.1	0	2	248	0.00	29.867 
17:55	45.5	45.5	45.5	69	35.9	0	2	248	0.00	29.867 
18:00	45.5	45.5	45.5	68	35.6	1	3	248	0.00	29.863 
18:05	45.5	45.5	45.5	69	35.9	0	2	248	0.00	29.863 
18:10	45.4	45.4	45.4	69	35.8	1	2	248	0.00	29.863 
18:15	45.4	45.4	45.4	70	36.2	1	3	248	0.00	29.862 
18:20	45.4	45.4	45.4	72	36.9	0	2	248	0.00	29.862 
18:25	45.2	45.2	45.2	73	37.1	0	1	248	0.00	29.862 
18:30	45.1	45.1	45.1	74	37.3	0	1	248	0.00	29.867 
18:35	44.9	44.9	44.9	75	37.5	0	2	248	0.00	29.867 
18:40	44.8	44.8	44.8	76	37.7	0	1	248	0.00	29.867 
18:45	44.6	44.6	44.6	77	37.8	0	1	248	0.00	29.865 
18:50	44.5	44.5	44.5	79	38.4	0	1	248	0.00	29.865 
18:55	44.3	44.3	44.3	80	38.5	0	2	248	0.00	29.865 
19:00	44.1	44.1	44.1	81	38.6	0	1	248	0.00	29.867 
19:05	43.9	43.9	43.9	82	38.8	0	1	248	0.00	29.867 
19:10	43.8	43.8	43.8	83	39.0	0	1	248	0.01	29.867 
19:15	43.6	43.6	43.6	83	38.8	0	2	248	0.00	29.868 
19:20	43.5	43.5	43.5	84	39.0	0	1	248	0.00	29.868 
19:25	43.3	43.3	43.3	85	39.1	0	1	248	0.00	29.868 
19:30	43.2	43.2	43.2	85	39.0	0	0	---	0.01	29.868 
19:35	43.1	43.1	43.1	86	39.2	0	1	248	0.00	29.868 
19:40	43.1	43.1	43.1	87	39.5	0	0	---	0.00	29.868 
19:45	42.9	42.9	42.9	87	39.3	0	0	---	0.00	29.858 
19:50	42.8	42.8	42.8	87	39.2	0	0	---	0.00	29.858 
19:55	42.8	42.8	42.8	88	39.5	0	0	---	0.00	29.858 
20:00	42.6	42.6	42.6	88	39.3	0	1	248	0.01	29.857 
20:05	42.5	42.5	42.5	88	39.2	0	1	248	0.00	29.857 
20:10	42.5	42.5	42.5	89	39.5	0	1	248	0.00	29.857 
20:15	42.5	42.5	42.5	89	39.5	0	1	248	0.00	29.868 
20:20	42.3	42.3	42.3	89	39.3	0	1	248	0.01	29.868 
20:25	42.3	42.3	42.3	89	39.3	0	1	248	0.00	29.868 
20:30	42.2	42.2	42.2	90	39.5	0	1	248	0.00	29.858 
20:35	42.2	42.2	42.2	90	39.5	0	1	248	0.01	29.858 
20:40	42.1	42.1	42.1	90	39.4	0	0	---	0.00	29.858 
20:45	42.1	42.1	42.1	90	39.4	0	0	---	0.01	29.859 
20:50	42.1	42.1	42.1	90	39.4	0	0	---	0.00	29.859 
20:55	42.1	42.1	42.1	91	39.7	0	1	248	0.01	29.859 
21:00	42.1	42.1	42.1	91	39.7	0	1	248	0.01	29.853 
21:05	41.9	41.9	41.9	91	39.5	0	1	248	0.00	29.853 
21:10	41.9	41.9	41.9	91	39.5	0	0	---	0.01	29.853 
21:15	41.8	41.8	41.8	92	39.6	0	1	248	0.00	29.846 
21:20	41.9	41.9	41.9	92	39.7	0	1	248	0.00	29.846 
21:25	41.8	41.8	41.8	92	39.6	0	0	---	0.01	29.846 
21:30	41.8	41.8	41.8	92	39.6	0	0	---	0.00	29.840 
21:35	41.8	41.8	41.8	92	39.6	0	0	---	0.00	29.840 
21:40	41.6	41.6	41.6	92	39.5	0	0	---	0.00	29.840 
21:45	41.6	41.6	41.6	92	39.5	0	0	---	0.01	29.839 
21:50	41.6	41.6	41.6	92	39.5	0	0	---	0.00	29.839 
21:55	41.6	41.6	41.6	92	39.5	0	0	---	0.00	29.839 
22:00	41.6	41.6	41.6	92	39.5	0	1	248	0.01	29.837 
22:05	41.6	41.6	41.6	93	39.7	0	0	---	0.00	29.837 
22:10	41.6	41.6	41.6	93	39.7	0	0	---	0.00	29.837 
22:15	41.6	41.6	41.6	93	39.7	0	1	248	0.00	29.832 
22:20	41.6	41.6	41.6	93	39.7	0	1	248	0.01	29.832 
22:25	41.6	41.6	41.6	93	39.7	0	1	248	0.00	29.832 
22:30	41.6	41.6	41.6	93	39.7	0	1	248	0.00	29.821 
22:35	41.6	41.6	41.6	93	39.7	0	1	248	0.00	29.821 
22:40	41.6	41.6	41.6	93	39.7	0	2	248	0.00	29.821 
22:45	41.6	41.6	41.6	94	40.0	0	1	248	0.00	29.815 
22:50	41.6	41.6	41.6	94	40.0	0	3	248	0.00	29.815 
22:55	41.6	41.6	41.6	94	40.0	0	3	248	0.00	29.815 
23:00	41.6	41.6	41.6	94	40.0	0	2	158	0.00	29.804 
23:05	41.6	41.6	41.6	94	40.0	0	1	158	0.00	29.804 
23:10	41.5	41.5	41.5	94	39.9	0	1	158	0.00	29.804 
23:15	41.5	41.5	41.5	94	39.9	0	1	158	0.00	29.786 
23:20	41.5	41.5	41.5	94	39.9	0	0	---	0.00	29.786 
23:25	41.5	41.5	41.5	94	39.9	0	2	158	0.00	29.786 
23:30	41.3	41.3	41.3	94	39.7	0	0	---	0.00	29.787 
23:35	41.3	41.3	41.3	94	39.7	0	1	158	0.00	29.787 
23:40	41.3	41.3	41.3	94	39.7	0	0	---	0.00	29.787 
23:45	41.2	41.2	41.2	94	39.6	0	0	---	0.00	29.787 
23:50	41.1	41.1	41.1	94	39.5	0	0	---	0.00	29.787 
23:55	41.1	41.1	41.1	94	39.5	0	0	---	0.00	29.787 

CoCoRaHS
IN-AL-39
A2 Web Hosting
Creative Commons License
GoDaddy
search engine by freefind advanced

loaded 2018-12-19 10:21:00 • last modified 2010-11-18 10:43:29
Privacy PolicyDisclaimer
• wx.awcolley.com is powered by PmWiki v.2002016 •
• all content (unless otherwise noted) © 2018 A W Colley